createdAt,value
2019-06-15T00:00:25.689Z,10.80
2019-06-15T00:02:55.260Z,9.78
2019-06-15T00:05:24.635Z,9.45
2019-06-15T00:07:54.752Z,9.80
2019-06-15T00:10:24.209Z,11.80
2019-06-15T00:12:53.572Z,11.78
2019-06-15T00:15:23.029Z,10.07
2019-06-15T00:17:52.410Z,11.30
2019-06-15T00:20:21.815Z,10.53
2019-06-15T00:22:51.162Z,9.43
2019-06-15T00:25:20.600Z,10.60
2019-06-15T00:27:49.979Z,14.05
2019-06-15T00:30:19.891Z,10.17
2019-06-15T00:32:49.288Z,11.18
2019-06-15T00:35:19.118Z,11.77
2019-06-15T00:37:48.497Z,11.30
2019-06-15T00:40:17.886Z,11.45
2019-06-15T00:42:48.011Z,15.65
2019-06-15T00:45:17.399Z,11.80
2019-06-15T00:47:47.070Z,11.50
2019-06-15T00:50:16.534Z,12.47
2019-06-15T00:52:45.926Z,12.40
2019-06-15T00:55:15.295Z,11.37
2019-06-15T00:57:44.671Z,11.00
2019-06-15T01:00:15.309Z,11.70
2019-06-15T01:02:44.753Z,11.45
2019-06-15T01:05:15.938Z,10.20
2019-06-15T01:07:45.335Z,10.10
2019-06-15T01:10:16.303Z,15.23
2019-06-15T01:12:46.005Z,12.95
2019-06-15T01:15:16.452Z,11.30
2019-06-15T01:17:45.846Z,11.35
2019-06-15T01:20:16.535Z,11.53
2019-06-15T01:22:45.974Z,13.95
2019-06-15T01:25:15.897Z,12.85
2019-06-15T01:27:45.278Z,11.70
2019-06-15T01:30:15.962Z,10.98
2019-06-15T01:32:45.911Z,10.90
2019-06-15T01:35:15.643Z,15.20
2019-06-15T01:37:45.019Z,12.95
2019-06-15T01:40:15.666Z,12.13
2019-06-15T01:42:45.046Z,13.15
2019-06-15T01:45:15.480Z,11.90
2019-06-15T01:47:44.883Z,12.82
2019-06-15T01:50:14.773Z,11.37
2019-06-15T01:52:44.164Z,12.88
2019-06-15T01:55:21.001Z,12.20
2019-06-15T01:57:45.164Z,10.75
2019-06-15T02:00:24.366Z,11.67
2019-06-15T02:02:53.741Z,12.82
2019-06-15T02:05:22.950Z,12.45
2019-06-15T02:07:52.328Z,11.20
2019-06-15T02:10:28.822Z,10.80
2019-06-15T02:12:58.232Z,13.25
2019-06-15T02:15:27.637Z,12.70
2019-06-15T02:17:57.016Z,18.07
2019-06-15T02:20:26.544Z,13.10
2019-06-15T02:22:56.279Z,14.47
2019-06-15T02:25:35.921Z,12.67
2019-06-15T02:28:00.382Z,11.60
2019-06-15T02:30:33.751Z,14.10
2019-06-15T02:33:03.689Z,12.60
2019-06-15T02:35:33.368Z,10.70
2019-06-15T02:38:02.774Z,11.60
2019-06-15T02:40:32.148Z,12.18
2019-06-15T02:43:02.064Z,11.28
2019-06-15T02:45:31.471Z,10.88
2019-06-15T02:48:01.513Z,10.90
2019-06-15T02:50:31.961Z,12.28
2019-06-15T02:53:01.435Z,13.62
2019-06-15T02:55:30.810Z,13.93
2019-06-15T02:58:00.189Z,12.55
2019-06-15T03:00:39.587Z,11.80
2019-06-15T03:03:08.980Z,12.68
2019-06-15T03:05:39.268Z,13.38
2019-06-15T03:08:09.249Z,12.63
2019-06-15T03:10:38.657Z,15.88
2019-06-15T03:13:08.021Z,14.50
2019-06-15T03:15:37.475Z,12.63
2019-06-15T03:18:06.917Z,15.32
2019-06-15T03:20:36.306Z,12.75
2019-06-15T03:23:05.686Z,16.15
2019-06-15T03:25:35.063Z,13.20
2019-06-15T03:28:04.540Z,13.08
2019-06-15T03:30:34.241Z,15.08
2019-06-15T03:33:03.633Z,15.32
2019-06-15T03:35:33.016Z,12.85
2019-06-15T03:38:03.087Z,15.60
2019-06-15T03:40:32.479Z,12.98
2019-06-15T03:43:01.924Z,15.08
2019-06-15T03:45:31.350Z,14.98
2019-06-15T03:48:02.120Z,14.07
2019-06-15T03:50:31.497Z,17.02
2019-06-15T03:53:00.918Z,15.08
2019-06-15T03:55:30.324Z,17.70
2019-06-15T03:57:59.759Z,16.70
2019-06-15T04:00:48.106Z,16.60
2019-06-15T04:03:17.999Z,15.32
2019-06-15T04:05:47.443Z,13.83
2019-06-15T04:08:17.657Z,16.00
2019-06-15T04:10:47.023Z,13.48
2019-06-15T04:13:16.402Z,16.95
2019-06-15T04:15:45.898Z,17.67
2019-06-15T04:18:15.262Z,14.28
2019-06-15T04:20:44.639Z,14.40
2019-06-15T04:23:14.092Z,14.23
2019-06-15T04:25:44.438Z,16.67
2019-06-15T04:28:14.130Z,15.83
2019-06-15T04:30:44.124Z,13.88
2019-06-15T04:33:13.512Z,16.25
2019-06-15T04:35:42.903Z,14.13
2019-06-15T04:38:12.605Z,15.58
2019-06-15T04:40:42.004Z,14.23
2019-06-15T04:43:11.653Z,14.23
2019-06-15T04:45:41.066Z,16.15
2019-06-15T04:48:10.746Z,18.05
2019-06-15T04:50:40.148Z,14.07
2019-06-15T04:53:10.033Z,15.93
2019-06-15T04:55:40.992Z,13.43
2019-06-15T04:58:10.339Z,13.25
2019-06-15T05:00:39.824Z,17.00
2019-06-15T05:03:09.315Z,12.73
2019-06-15T05:05:38.810Z,14.20
2019-06-15T05:08:08.214Z,14.03
2019-06-15T05:10:37.562Z,15.53
2019-06-15T05:13:06.946Z,13.93
2019-06-15T05:15:37.221Z,13.93
2019-06-15T05:18:06.608Z,12.33
2019-06-15T05:20:35.982Z,13.13
2019-06-15T05:23:05.538Z,15.23
2019-06-15T05:25:35.031Z,12.43
2019-06-15T05:28:04.580Z,11.95
2019-06-15T05:30:33.964Z,13.53
2019-06-15T05:33:03.349Z,12.33
2019-06-15T05:35:32.727Z,17.17
2019-06-15T05:38:02.308Z,12.23
2019-06-15T05:40:31.898Z,14.70
2019-06-15T05:43:01.660Z,16.30
2019-06-15T05:45:31.157Z,13.00
2019-06-15T05:48:01.534Z,12.53
2019-06-15T05:50:30.963Z,12.70
2019-06-15T05:53:00.565Z,14.13
2019-06-15T05:55:29.992Z,10.93
2019-06-15T05:57:59.414Z,12.03
2019-06-15T06:00:28.948Z,15.33
2019-06-15T06:02:58.348Z,11.53
2019-06-15T06:05:27.755Z,15.98
2019-06-15T06:07:57.149Z,12.55
2019-06-15T06:10:26.536Z,12.13
2019-06-15T06:12:55.923Z,10.65
2019-06-15T06:15:26.938Z,14.83
2019-06-15T06:17:56.625Z,13.03
2019-06-15T06:20:26.036Z,10.37
2019-06-15T06:22:55.415Z,14.73
2019-06-15T06:25:24.811Z,10.90
2019-06-15T06:27:54.190Z,12.37
2019-06-15T06:30:23.648Z,14.63
2019-06-15T06:32:53.876Z,11.63
2019-06-15T06:35:23.286Z,15.53
2019-06-15T06:37:52.620Z,11.30
2019-06-15T06:40:22.755Z,12.37
2019-06-15T06:42:52.304Z,11.12
2019-06-15T06:45:22.588Z,15.87
2019-06-15T06:47:51.957Z,11.22
2019-06-15T06:50:22.048Z,14.07
2019-06-15T06:52:51.486Z,13.65
2019-06-15T06:55:20.938Z,11.43
2019-06-15T06:57:53.532Z,16.42
2019-06-15T07:00:22.676Z,17.73
2019-06-15T07:02:52.063Z,14.03
2019-06-15T07:05:21.463Z,10.93
2019-06-15T07:07:50.882Z,12.60
2019-06-15T07:10:20.323Z,10.50
2019-06-15T07:12:49.685Z,14.45
2019-06-15T07:15:19.229Z,11.93
2019-06-15T07:17:48.604Z,14.60
2019-06-15T07:20:18.498Z,11.33
2019-06-15T07:22:47.899Z,14.90
2019-06-15T07:25:17.281Z,12.35
2019-06-15T07:27:46.661Z,14.30
2019-06-15T07:30:17.137Z,12.60
2019-06-15T07:32:46.499Z,13.22
2019-06-15T07:35:15.884Z,14.90
2019-06-15T07:37:45.292Z,11.70
2019-06-15T07:40:15.021Z,13.08
2019-06-15T07:42:44.430Z,14.87
2019-06-15T07:45:14.959Z,14.70
2019-06-15T07:47:44.650Z,12.28
2019-06-15T07:50:14.098Z,10.88
2019-06-15T07:52:44.218Z,15.68
2019-06-15T07:55:13.748Z,13.97
2019-06-15T07:57:43.137Z,12.65
2019-06-15T08:00:13.469Z,15.25
2019-06-15T08:02:42.851Z,15.35
2019-06-15T08:05:12.307Z,14.63
2019-06-15T08:07:41.718Z,15.43
2019-06-15T08:10:11.687Z,13.58
2019-06-15T08:12:41.132Z,11.70
2019-06-15T08:15:12.026Z,15.53
2019-06-15T08:17:41.391Z,12.30
2019-06-15T08:20:13.812Z,17.55
2019-06-15T08:22:43.215Z,15.45
2019-06-15T08:25:13.502Z,12.12
2019-06-15T08:27:42.881Z,13.28
2019-06-15T08:30:14.596Z,17.98
2019-06-15T08:32:43.981Z,17.42
2019-06-15T08:35:13.363Z,15.45
2019-06-15T08:37:42.751Z,20.12
2019-06-15T08:40:12.896Z,18.40
2019-06-15T08:42:42.219Z,12.73
2019-06-15T08:45:11.765Z,14.30
2019-06-15T08:47:40.961Z,15.65
2019-06-15T08:50:11.963Z,14.08
2019-06-15T08:52:41.388Z,17.00
2019-06-15T08:55:10.964Z,15.38
2019-06-15T08:57:40.687Z,14.53
2019-06-15T09:00:11.538Z,13.32
2019-06-15T09:02:40.929Z,14.05
2019-06-15T09:05:10.655Z,13.13
2019-06-15T09:07:40.058Z,13.43
2019-06-15T09:10:11.707Z,15.25
2019-06-15T09:12:41.088Z,18.25
2019-06-15T09:15:13.258Z,13.83
2019-06-15T09:17:42.635Z,15.15
2019-06-15T09:20:12.763Z,20.62
2019-06-15T09:22:42.144Z,19.02
2019-06-15T09:25:12.536Z,14.25
2019-06-15T09:27:41.938Z,17.80
2019-06-15T09:30:11.715Z,15.35
2019-06-15T09:32:41.165Z,15.08
2019-06-15T09:35:10.632Z,14.30
2019-06-15T09:37:40.455Z,16.95
2019-06-15T09:40:11.820Z,15.38
2019-06-15T09:42:41.200Z,15.75
2019-06-15T09:45:11.703Z,15.00
2019-06-15T09:47:41.084Z,17.73
2019-06-15T09:50:11.007Z,16.70
2019-06-15T09:52:41.062Z,16.32
2019-06-15T09:55:11.203Z,17.50
2019-06-15T09:57:40.541Z,15.75
2019-06-15T10:00:11.851Z,17.57
2019-06-15T10:02:41.241Z,15.88
2019-06-15T10:05:11.305Z,16.80
2019-06-15T10:07:40.749Z,16.00
2019-06-15T10:10:11.123Z,17.45
2019-06-15T10:12:40.504Z,23.27
2019-06-15T10:15:10.751Z,17.80
2019-06-15T10:17:40.140Z,16.80
2019-06-15T10:20:10.981Z,16.16
2019-06-15T10:22:40.370Z,15.98
2019-06-15T10:25:11.103Z,15.86
2019-06-15T10:27:40.519Z,19.48
2019-06-15T10:30:11.219Z,16.84
2019-06-15T10:32:40.585Z,16.70
2019-06-15T10:35:11.030Z,16.80
2019-06-15T10:37:40.426Z,15.80
2019-06-15T10:40:11.013Z,17.26
2019-06-15T10:42:40.396Z,16.73
2019-06-15T10:45:10.708Z,15.95
2019-06-15T10:47:40.079Z,15.72
2019-06-15T10:50:11.650Z,16.80
2019-06-15T10:52:41.265Z,17.70
2019-06-15T10:55:11.745Z,15.88
2019-06-15T10:57:41.116Z,17.10
2019-06-15T11:00:12.993Z,20.00
2019-06-15T11:02:42.626Z,17.90
2019-06-15T11:05:16.480Z,16.37
2019-06-15T11:07:46.493Z,15.72
2019-06-15T11:10:19.745Z,17.60
2019-06-15T11:12:49.144Z,16.65
2019-06-15T11:15:18.539Z,19.93
2019-06-15T11:17:48.195Z,18.70
2019-06-15T11:20:17.651Z,19.70
2019-06-15T11:22:47.112Z,16.87
2019-06-15T11:25:16.518Z,17.80
2019-06-15T11:27:45.945Z,17.90
2019-06-15T11:30:15.378Z,18.90
2019-06-15T11:32:44.821Z,18.07
2019-06-15T11:35:14.746Z,20.44
2019-06-15T11:37:44.160Z,19.10
2019-06-15T11:40:14.361Z,17.37
2019-06-15T11:42:43.750Z,19.10
2019-06-15T11:45:13.651Z,19.80
2019-06-15T11:47:43.030Z,21.48
2019-06-15T11:50:13.064Z,18.30
2019-06-15T11:52:42.470Z,19.00
2019-06-15T11:55:12.291Z,19.20
2019-06-15T11:57:41.781Z,18.50
2019-06-15T12:00:29.896Z,20.15
2019-06-15T12:02:44.057Z,17.70
2019-06-15T12:05:13.776Z,17.93
2019-06-15T12:07:43.188Z,19.90
2019-06-15T12:10:12.900Z,16.90
2019-06-15T12:12:42.317Z,18.98
2019-06-15T12:15:11.856Z,16.48
2019-06-15T12:17:41.306Z,19.37
2019-06-15T12:20:11.054Z,17.07
2019-06-15T12:22:40.687Z,15.45
2019-06-15T12:25:10.499Z,20.25
2019-06-15T12:27:39.908Z,16.07
2019-06-15T12:30:12.639Z,16.42
2019-06-15T12:32:42.055Z,13.43
2019-06-15T12:35:13.099Z,13.43
2019-06-15T12:37:42.509Z,16.80
2019-06-15T12:40:12.067Z,19.10
2019-06-15T12:42:41.527Z,17.15
2019-06-15T12:45:11.345Z,19.45
2019-06-15T12:47:40.718Z,19.80
2019-06-15T12:50:10.173Z,16.27
2019-06-15T12:52:40.177Z,18.45
2019-06-15T12:55:09.911Z,18.17
2019-06-15T12:57:39.242Z,16.12
2019-06-15T13:00:10.359Z,22.26
2019-06-15T13:02:39.788Z,16.60
2019-06-15T13:05:10.191Z,16.40
2019-06-15T13:07:39.569Z,16.27
2019-06-15T13:10:09.742Z,20.77
2019-06-15T13:12:39.290Z,13.30
2019-06-15T13:15:09.208Z,12.37
2019-06-15T13:17:38.589Z,12.13
2019-06-15T13:20:09.951Z,13.20
2019-06-15T13:22:39.387Z,14.13
2019-06-15T13:25:10.032Z,18.06
2019-06-15T13:27:39.492Z,9.98
2019-06-15T13:30:19.336Z,13.06
2019-06-15T13:32:48.779Z,17.05
2019-06-15T13:35:18.510Z,12.03
2019-06-15T13:37:47.897Z,10.25
2019-06-15T13:40:17.397Z,12.90
2019-06-15T13:42:46.792Z,11.73
2019-06-15T13:45:17.066Z,16.07
2019-06-15T13:47:46.423Z,11.18
2019-06-15T13:50:16.094Z,11.18
2019-06-15T13:52:45.782Z,12.82
2019-06-15T13:55:16.415Z,8.50
2019-06-15T13:57:45.750Z,9.23
2019-06-15T14:00:15.390Z,10.70
2019-06-15T14:02:44.954Z,14.33
2019-06-15T14:05:14.409Z,16.40
2019-06-15T14:07:43.839Z,8.20
2019-06-15T14:10:14.877Z,9.78
2019-06-15T14:12:44.246Z,9.35
2019-06-15T14:15:15.478Z,11.73
2019-06-15T14:17:44.838Z,9.33
2019-06-15T14:20:14.528Z,6.73
2019-06-15T14:22:43.978Z,11.78
2019-06-15T14:25:13.536Z,6.75
2019-06-15T14:27:42.933Z,9.78
2019-06-15T14:30:15.573Z,10.18
2019-06-15T14:32:44.981Z,7.55
2019-06-15T14:35:14.699Z,7.67
2019-06-15T14:37:44.381Z,12.95
2019-06-15T14:40:15.175Z,9.90
2019-06-15T14:42:44.580Z,6.70
2019-06-15T14:45:14.452Z,8.15
2019-06-15T14:47:43.842Z,9.28
2019-06-15T14:50:13.351Z,11.05
2019-06-15T14:52:42.740Z,8.98
2019-06-15T14:55:12.787Z,7.58
2019-06-15T14:57:42.157Z,7.83
2019-06-15T15:00:12.669Z,10.00
2019-06-15T15:02:42.077Z,10.38
2019-06-15T15:05:17.643Z,8.30
2019-06-15T15:07:46.953Z,11.22
2019-06-15T15:10:16.604Z,10.97
2019-06-15T15:12:46.201Z,7.25
2019-06-15T15:15:17.040Z,9.10
2019-06-15T15:17:46.596Z,9.05
2019-06-15T15:20:17.430Z,12.83
2019-06-15T15:22:47.007Z,10.72
2019-06-15T15:25:16.959Z,13.20
2019-06-15T15:27:46.989Z,10.95
2019-06-15T15:30:21.769Z,10.00
2019-06-15T15:32:51.074Z,11.97
2019-06-15T15:35:20.445Z,9.83
2019-06-15T15:37:49.882Z,14.65
2019-06-15T15:40:19.282Z,12.83
2019-06-15T15:42:48.632Z,13.70
2019-06-15T15:45:18.039Z,11.25
2019-06-15T15:47:47.401Z,12.40
2019-06-15T15:50:17.780Z,18.85
2019-06-15T15:52:47.190Z,12.13
2019-06-15T15:55:17.376Z,10.97
2019-06-15T15:57:46.949Z,8.68
2019-06-15T16:00:35.907Z,7.45
2019-06-15T16:03:07.074Z,13.28
2019-06-15T16:05:37.248Z,8.80
2019-06-15T16:08:07.286Z,7.20
2019-06-15T16:10:37.416Z,11.93
2019-06-15T16:13:07.024Z,8.38
2019-06-15T16:15:37.325Z,10.08
2019-06-15T16:18:07.096Z,6.85
2019-06-15T16:20:37.245Z,6.95
2019-06-15T16:23:07.473Z,7.28
2019-06-15T16:25:37.485Z,8.08
2019-06-15T16:28:07.519Z,7.62
2019-06-15T16:31:00.206Z,8.83
2019-06-15T16:33:08.294Z,10.93
2019-06-15T16:35:37.643Z,7.03
2019-06-15T16:38:07.332Z,12.95
2019-06-15T16:40:40.738Z,10.68
2019-06-15T16:43:10.465Z,10.50
2019-06-15T16:45:39.914Z,9.60
2019-06-15T16:48:09.365Z,8.60
2019-06-15T16:50:38.943Z,11.00
2019-06-15T16:53:08.344Z,8.68
2019-06-15T16:55:38.409Z,7.60
2019-06-15T16:58:07.969Z,11.05
2019-06-15T17:00:37.384Z,9.88
2019-06-15T17:03:21.119Z,11.22
2019-06-15T17:05:38.249Z,6.97
2019-06-15T17:08:07.788Z,7.92
2019-06-15T17:10:42.510Z,10.18
2019-06-15T17:13:11.879Z,7.03
2019-06-15T17:15:41.520Z,7.15
2019-06-15T17:18:10.894Z,6.17
2019-06-15T17:20:56.196Z,7.20
2019-06-15T17:23:27.366Z,7.37
2019-06-15T17:25:56.128Z,8.13
2019-06-15T17:28:26.498Z,6.45
2019-06-15T17:30:56.677Z,6.37
2019-06-15T17:33:36.917Z,7.37
2019-06-15T17:36:02.925Z,6.03
2019-06-15T17:38:28.442Z,5.28
2019-06-15T17:40:57.835Z,3.75
2019-06-15T17:43:27.263Z,8.60
2019-06-15T17:45:56.769Z,5.30
2019-06-15T17:48:26.184Z,4.35
2019-06-15T17:50:57.186Z,8.65
2019-06-15T17:53:26.782Z,4.55
2019-06-15T17:55:56.272Z,4.25
2019-06-15T17:58:26.382Z,3.83
2019-06-15T18:00:57.465Z,8.48
2019-06-15T18:03:27.041Z,4.53
2019-06-15T18:05:58.334Z,5.33
2019-06-15T18:08:28.637Z,6.30
2019-06-15T18:10:58.360Z,5.78
2019-06-15T18:13:28.970Z,5.87
2019-06-15T18:15:58.349Z,5.17
2019-06-15T18:18:28.013Z,4.40
2019-06-15T18:20:57.434Z,4.70
2019-06-15T18:23:26.796Z,4.80
2019-06-15T18:25:56.307Z,3.22
2019-06-15T18:28:26.491Z,4.92
2019-06-15T18:30:56.066Z,4.45
2019-06-15T18:33:27.200Z,5.62
2019-06-15T18:35:56.534Z,5.62
2019-06-15T18:38:26.103Z,6.00
2019-06-15T18:40:56.219Z,4.45
2019-06-15T18:43:26.343Z,4.25
2019-06-15T18:45:56.800Z,6.12
2019-06-15T18:48:26.606Z,4.67
2019-06-15T18:50:56.167Z,4.45
2019-06-15T18:53:26.892Z,4.83
2019-06-15T18:55:56.797Z,4.00
2019-06-15T18:58:26.539Z,5.78
2019-06-15T19:00:55.900Z,5.85
2019-06-15T19:03:26.163Z,5.45
2019-06-15T19:05:56.985Z,4.22
2019-06-15T19:08:26.454Z,3.75
2019-06-15T19:11:01.812Z,3.47
2019-06-15T19:13:31.306Z,3.47
2019-06-15T19:16:01.370Z,4.83
2019-06-15T19:18:30.912Z,5.85
2019-06-15T19:21:01.240Z,4.22
2019-06-15T19:23:31.056Z,5.50
2019-06-15T19:26:00.514Z,4.55
2019-06-15T19:28:29.984Z,3.95
2019-06-15T19:30:59.371Z,4.58
2019-06-15T19:33:28.746Z,5.47
2019-06-15T19:35:58.535Z,5.65
2019-06-15T19:38:27.917Z,5.10
2019-06-15T19:40:57.310Z,8.33
2019-06-15T19:43:26.714Z,5.17
2019-06-15T19:45:56.624Z,3.52
2019-06-15T19:48:26.819Z,6.83
2019-06-15T19:50:56.722Z,6.55
2019-06-15T19:53:27.239Z,5.92
2019-06-15T19:55:57.652Z,5.70
2019-06-15T19:58:27.649Z,9.25
2019-06-15T20:00:57.021Z,4.85
2019-06-15T20:03:27.582Z,4.28
2019-06-15T20:05:57.133Z,6.28
2019-06-15T20:08:26.693Z,5.60
2019-06-15T20:10:56.689Z,5.00
2019-06-15T20:13:26.316Z,4.47
2019-06-15T20:15:57.239Z,6.12
2019-06-15T20:18:30.012Z,4.67
2019-06-15T20:20:57.916Z,4.00
2019-06-15T20:23:28.858Z,7.53
2019-06-15T20:25:58.440Z,4.17
2019-06-15T20:28:28.036Z,7.35
2019-06-15T20:30:57.367Z,5.15
2019-06-15T20:33:26.743Z,4.33
2019-06-15T20:35:57.463Z,4.25
2019-06-15T20:38:27.177Z,6.47
2019-06-15T20:40:56.943Z,4.53
2019-06-15T20:43:27.366Z,6.20
2019-06-15T20:45:57.019Z,4.25
2019-06-15T20:48:26.948Z,5.92
2019-06-15T20:50:57.034Z,5.00
2019-06-15T20:53:26.403Z,4.10
2019-06-15T20:55:56.990Z,5.20
2019-06-15T20:58:26.718Z,3.65
2019-06-15T21:00:56.401Z,5.35
2019-06-15T21:03:26.805Z,4.40
2019-06-15T21:05:57.223Z,3.98
2019-06-15T21:08:26.896Z,4.70
2019-06-15T21:10:56.515Z,4.35
2019-06-15T21:13:26.557Z,4.78
2019-06-15T21:15:56.822Z,6.93
2019-06-15T21:18:26.548Z,4.70
2019-06-15T21:20:57.207Z,5.40
2019-06-15T21:23:26.924Z,4.15
2019-06-15T21:25:57.065Z,5.15
2019-06-15T21:28:27.262Z,3.87
2019-06-15T21:30:56.787Z,7.03
2019-06-15T21:33:26.615Z,4.95
2019-06-15T21:35:56.821Z,3.35
2019-06-15T21:38:26.731Z,4.42
2019-06-15T21:40:57.045Z,3.52
2019-06-15T21:43:26.743Z,3.98
2019-06-15T21:45:57.066Z,1.80
2019-06-15T21:48:27.079Z,3.37
2019-06-15T21:50:59.267Z,2.70
2019-06-15T21:53:27.768Z,3.30
2019-06-15T21:55:57.138Z,2.72
2019-06-15T21:58:27.293Z,1.92
2019-06-15T22:01:13.447Z,2.20
2019-06-15T22:03:43.299Z,1.75
2019-06-15T22:06:12.668Z,2.72
2019-06-15T22:08:42.462Z,1.20
2019-06-15T22:11:12.255Z,2.08
2019-06-15T22:13:41.651Z,2.30
2019-06-15T22:16:13.800Z,2.75
2019-06-15T22:18:42.208Z,1.77
2019-06-15T22:21:11.647Z,1.27
2019-06-15T22:23:41.382Z,5.80
2019-06-15T22:26:10.773Z,2.42
2019-06-15T22:28:40.253Z,2.08
2019-06-15T22:31:09.636Z,4.08
2019-06-15T22:33:39.053Z,1.05
2019-06-15T22:36:20.710Z,1.22
2019-06-15T22:38:39.558Z,3.92
2019-06-15T22:41:09.102Z,2.45
2019-06-15T22:43:38.460Z,2.17
2019-06-15T22:46:07.833Z,1.67
2019-06-15T22:48:37.317Z,1.00
2019-06-15T22:51:06.700Z,0.98
2019-06-15T22:53:36.665Z,0.55
2019-06-15T22:56:06.825Z,2.70
2019-06-15T22:58:36.265Z,0.80
2019-06-15T23:01:06.264Z,1.07
2019-06-15T23:03:36.273Z,1.35
2019-06-15T23:06:06.950Z,1.00
2019-06-15T23:08:36.580Z,1.12
2019-06-15T23:11:06.802Z,1.15
2019-06-15T23:13:36.955Z,0.60
2019-06-15T23:16:06.673Z,1.15
2019-06-15T23:18:36.132Z,0.85
2019-06-15T23:21:06.430Z,1.85
2019-06-15T23:23:36.308Z,1.32
2019-06-15T23:26:06.595Z,1.12
2019-06-15T23:28:36.112Z,1.40
2019-06-15T23:31:07.618Z,0.65
2019-06-15T23:33:36.694Z,1.00
2019-06-15T23:36:10.561Z,1.25
2019-06-15T23:41:08.587Z,0.65
2019-06-15T23:43:37.967Z,1.30
2019-06-15T23:46:07.339Z,1.37
2019-06-15T23:48:36.763Z,0.68
2019-06-15T23:51:06.369Z,1.52
2019-06-15T23:53:36.711Z,0.95
2019-06-15T23:56:06.542Z,4.58
2019-06-15T23:58:37.126Z,3.70
